Time;durP1;ratioP1;P1;durP2;ratioP2;P2;SDS_P1;SDS_P2;PMS_P1;PMS_P2;Temp;Humidity;BMP_temperature;BMP_pressure;BME280_temperature;BME280_humidity;BME280_pressure;Samples;Min_cycle;Max_cycle;Signal;HPM_P1;HPM_P2
2023/05/05 00:02:01;;;;;;;3.08;1.13;;;18.60;36.80;;;;;;6224524;23;20197;-82
2023/05/05 00:04:27;;;;;;;1.48;1.10;;;18.60;36.80;;;;;;6123114;23;20140;-82
2023/05/05 00:06:53;;;;;;;1.23;1.10;;;18.60;36.90;;;;;;6199687;23;20183;-83
2023/05/05 00:09:21;;;;;;;1.67;1.40;;;18.60;36.90;;;;;;6224696;23;20453;-82
2023/05/05 00:11:47;;;;;;;1.70;1.15;;;18.60;36.90;;;;;;6223610;23;20198;-83
2023/05/05 00:14:13;;;;;;;1.10;1.00;;;18.50;36.80;;;;;;6199775;23;20560;-83
2023/05/05 00:16:39;;;;;;;1.25;1.10;;;18.50;36.80;;;;;;6122883;23;20137;-83
2023/05/05 00:19:05;;;;;;;1.20;1.10;;;18.60;36.90;;;;;;6122742;23;20468;-83
2023/05/05 00:21:31;;;;;;;3.38;1.35;;;18.60;36.90;;;;;;6122668;23;20167;-83
2023/05/05 00:23:57;;;;;;;2.47;1.20;;;18.50;36.90;;;;;;6224347;23;20633;-82
2023/05/05 00:26:23;;;;;;;1.40;1.00;;;18.50;37.00;;;;;;6122773;23;20171;-83
2023/05/05 00:28:49;;;;;;;2.13;1.35;;;18.50;37.00;;;;;;6224384;23;20133;-83
2023/05/05 00:31:15;;;;;;;2.22;1.25;;;18.50;37.00;;;;;;6198958;23;20144;-83
2023/05/05 00:33:41;;;;;;;1.67;1.10;;;18.50;37.00;;;;;;6122652;23;20220;-82
2023/05/05 00:36:08;;;;;;;2.08;1.10;;;18.50;37.00;;;;;;6224235;23;20188;-82
2023/05/05 00:38:38;;;;;;;4.43;1.35;;;18.50;37.10;;;;;;6123390;23;20136;-83
2023/05/05 00:41:04;;;;;;;2.33;1.30;;;18.50;37.10;;;;;;6173401;23;20183;-83
2023/05/05 00:43:30;;;;;;;1.58;1.30;;;18.50;37.20;;;;;;6122561;23;20156;-83
2023/05/05 00:46:01;;;;;;;1.33;1.23;;;18.50;37.20;;;;;;6224387;23;20148;-82
2023/05/05 00:48:32;;;;;;;1.83;1.13;;;18.50;37.20;;;;;;6199236;23;20141;-82
2023/05/05 00:50:58;;;;;;;2.78;1.27;;;18.60;37.20;;;;;;6148975;23;20156;-83
2023/05/05 00:53:25;;;;;;;1.55;1.10;;;18.50;37.20;;;;;;6224453;23;20168;-83
2023/05/05 00:55:51;;;;;;;2.22;1.38;;;18.50;37.20;;;;;;6122459;23;20132;-83
2023/05/05 00:58:17;;;;;;;1.40;1.10;;;18.50;37.30;;;;;;6224735;23;20167;-83
2023/05/05 01:00:43;;;;;;;1.33;1.20;;;18.40;37.30;;;;;;6122518;23;20171;-83
2023/05/05 01:03:11;;;;;;;1.50;1.08;;;18.40;37.30;;;;;;6224278;23;20140;-83
2023/05/05 01:05:47;;;;;;;1.60;0.98;;;18.50;37.30;;;;;;6199404;23;20145;-83
2023/05/05 01:08:28;;;;;;;1.83;1.33;;;18.50;37.40;;;;;;6223624;23;20641;-83
2023/05/05 01:10:57;;;;;;;1.20;1.10;;;18.50;37.50;;;;;;6224454;23;20190;-82
2023/05/05 01:14:01;;;;;;;1.70;1.30;;;18.50;37.40;;;;;;6198704;23;20144;-82
2023/05/05 01:16:29;;;;;;;1.88;1.10;;;18.50;37.50;;;;;;6207402;23;20140;-83
2023/05/05 01:19:26;;;;;;;1.35;1.17;;;18.40;37.50;;;;;;6227767;23;20143;-83
2023/05/05 01:21:59;;;;;;;1.52;1.08;;;18.50;37.50;;;;;;6229137;23;20132;-82
2023/05/05 01:24:49;;;;;;;2.05;1.23;;;18.40;37.50;;;;;;6153336;23;20156;-82
2023/05/05 01:27:44;;;;;;;2.75;1.15;;;18.40;37.50;;;;;;6127347;23;20169;-83
2023/05/05 01:30:31;;;;;;;1.55;1.27;;;18.40;37.50;;;;;;6228855;23;20144;-82
2023/05/05 01:33:05;;;;;;;1.73;1.30;;;18.40;37.60;;;;;;6127517;23;20140;-83
2023/05/05 01:35:36;;;;;;;1.17;1.00;;;18.40;37.60;;;;;;6153767;23;20279;-82
2023/05/05 01:38:07;;;;;;;1.60;1.25;;;18.40;37.60;;;;;;6229015;23;20228;-83
2023/05/05 01:40:38;;;;;;;2.45;1.25;;;18.40;37.70;;;;;;6227796;23;20133;-83
2023/05/05 01:43:05;;;;;;;0.95;0.90;;;18.40;37.70;;;;;;6204682;23;20196;-84
2023/05/05 01:45:32;;;;;;;1.50;1.20;;;18.40;37.80;;;;;;6228803;23;20136;-83
2023/05/05 01:47:58;;;;;;;1.30;1.20;;;18.40;37.80;;;;;;6203096;23;20222;-83
2023/05/05 01:50:29;;;;;;;2.15;1.30;;;18.40;37.80;;;;;;6126815;23;20603;-83
2023/05/05 01:52:55;;;;;;;1.48;1.00;;;18.40;37.80;;;;;;6153099;23;20152;-84
2023/05/05 01:55:23;;;;;;;1.23;1.10;;;18.40;37.80;;;;;;6203528;23;20576;-83
2023/05/05 01:57:49;;;;;;;2.03;1.20;;;18.40;37.80;;;;;;6202430;23;20231;-83
2023/05/05 02:00:16;;;;;;;1.85;1.27;;;18.40;37.90;;;;;;6127416;23;20553;-83
2023/05/05 02:02:48;;;;;;;2.58;1.40;;;18.40;37.90;;;;;;6128564;23;20132;-83
2023/05/05 02:05:14;;;;;;;1.60;1.20;;;18.40;38.10;;;;;;6154690;23;20156;-83
2023/05/05 02:07:45;;;;;;;1.10;1.00;;;18.40;37.90;;;;;;6204892;23;20168;-82
2023/05/05 02:10:14;;;;;;;1.63;1.42;;;18.40;37.90;;;;;;6154358;23;20206;-83
2023/05/05 02:12:41;;;;;;;1.33;1.05;;;18.40;37.90;;;;;;6129524;23;20243;-83
2023/05/05 02:15:12;;;;;;;1.55;1.17;;;18.40;38.20;;;;;;6128494;23;20129;-84
2023/05/05 02:17:41;;;;;;;1.73;1.40;;;18.40;38.20;;;;;;6178162;23;20163;-83
2023/05/05 02:20:08;;;;;;;1.10;1.00;;;18.40;38.20;;;;;;6230467;23;20223;-83
2023/05/05 02:22:34;;;;;;;1.38;1.20;;;18.40;38.20;;;;;;6204791;23;20148;-83
2023/05/05 02:25:04;;;;;;;1.83;1.27;;;18.40;38.20;;;;;;6205274;23;20556;-82
2023/05/05 02:27:30;;;;;;;2.03;1.30;;;18.30;38.10;;;;;;6178207;23;20188;-82
2023/05/05 02:30:05;;;;;;;1.30;1.20;;;18.30;38.20;;;;;;6230000;23;20160;-84
2023/05/05 02:32:38;;;;;;;3.55;1.33;;;18.30;38.10;;;;;;6154429;23;20155;-83
2023/05/05 02:35:09;;;;;;;1.30;1.20;;;18.40;38.20;;;;;;6130750;23;20195;-83
2023/05/05 02:37:35;;;;;;;1.25;1.10;;;18.30;38.10;;;;;;6227702;23;20164;-83
2023/05/05 02:40:04;;;;;;;2.10;1.38;;;18.30;38.30;;;;;;6229949;23;20136;-83
2023/05/05 02:42:37;;;;;;;1.67;1.20;;;18.30;38.20;;;;;;6204506;23;20145;-83
2023/05/05 02:45:13;;;;;;;2.05;1.40;;;18.30;38.40;;;;;;6154671;23;20522;-82
2023/05/05 02:47:39;;;;;;;1.15;1.05;;;18.30;38.40;;;;;;6201236;23;20202;-83
2023/05/05 02:50:06;;;;;;;1.77;1.35;;;18.30;38.30;;;;;;6225939;23;20128;-84
2023/05/05 02:52:32;;;;;;;3.17;1.13;;;18.30;38.40;;;;;;6201254;23;20144;-82
2023/05/05 02:54:58;;;;;;;1.40;1.30;;;18.30;38.40;;;;;;6123512;23;20133;-82
2023/05/05 02:57:35;;;;;;;1.63;1.20;;;18.30;38.50;;;;;;6123388;23;20174;-83
2023/05/05 03:00:13;;;;;;;1.40;1.25;;;18.30;38.50;;;;;;6152960;23;20485;-83
2023/05/05 03:03:00;;;;;;;2.17;1.40;;;18.30;38.50;;;;;;6200150;23;20225;-83
2023/05/05 03:05:29;;;;;;;1.65;1.35;;;18.30;38.50;;;;;;6226325;23;20568;-83
2023/05/05 03:08:03;;;;;;;1.48;1.20;;;18.30;38.60;;;;;;6199786;23;20302;-83
2023/05/05 03:10:33;;;;;;;1.30;1.20;;;18.30;38.60;;;;;;6224775;23;20143;-82
2023/05/05 03:13:00;;;;;;;1.95;1.17;;;18.30;38.60;;;;;;6225316;23;20153;-82
2023/05/05 03:15:33;;;;;;;1.35;1.25;;;18.30;38.60;;;;;;6199830;23;20140;-83
2023/05/05 03:17:59;;;;;;;3.42;1.63;;;18.30;38.60;;;;;;6199916;23;20148;-83
2023/05/05 03:20:24;;;;;;;1.88;1.30;;;18.20;38.70;;;;;;6123619;23;20466;-82
2023/05/05 03:22:51;;;;;;;1.70;1.40;;;18.30;38.70;;;;;;6200253;23;20231;-82
2023/05/05 03:25:17;;;;;;;2.33;1.40;;;18.30;38.70;;;;;;6225649;23;20568;-83
2023/05/05 03:27:43;;;;;;;1.40;1.20;;;18.30;38.70;;;;;;6225407;23;20164;-82
2023/05/05 03:30:09;;;;;;;2.63;1.40;;;18.30;38.70;;;;;;6123656;23;20460;-82
2023/05/05 03:32:35;;;;;;;1.17;1.08;;;18.20;38.70;;;;;;6200694;23;20235;-83
2023/05/05 03:35:01;;;;;;;1.45;1.35;;;18.30;38.80;;;;;;6199707;23;20204;-83
2023/05/05 03:37:27;;;;;;;1.60;1.35;;;18.20;38.80;;;;;;6226038;23;20155;-83
2023/05/05 03:39:53;;;;;;;1.75;1.38;;;18.30;38.80;;;;;;6201591;23;20199;-82
2023/05/05 03:42:19;;;;;;;1.63;1.10;;;18.20;38.70;;;;;;6124785;23;20147;-82
2023/05/05 03:44:45;;;;;;;1.88;1.20;;;18.20;38.80;;;;;;6227944;23;20143;-82
2023/05/05 03:47:11;;;;;;;2.55;1.52;;;18.20;38.90;;;;;;6227274;23;20190;-83
2023/05/05 03:49:37;;;;;;;2.40;1.38;;;18.20;38.90;;;;;;6228057;23;20148;-82
2023/05/05 03:52:03;;;;;;;1.48;1.30;;;18.20;38.90;;;;;;6126311;23;20159;-82
2023/05/05 03:54:30;;;;;;;2.88;1.30;;;18.20;38.90;;;;;;6201719;23;20148;-82
2023/05/05 03:56:57;;;;;;;1.13;1.00;;;18.20;39.00;;;;;;6226554;23;20584;-82
2023/05/05 03:59:22;;;;;;;1.65;1.30;;;18.20;38.90;;;;;;6225481;23;20137;-82
2023/05/05 04:01:48;;;;;;;1.98;1.23;;;18.20;39.00;;;;;;6226451;23;20148;-82
2023/05/05 04:04:15;;;;;;;2.85;1.38;;;18.20;38.90;;;;;;6124154;23;20173;-82
2023/05/05 04:06:41;;;;;;;3.92;1.40;;;18.20;38.90;;;;;;6124253;23;20159;-82
2023/05/05 04:09:07;;;;;;;1.50;1.00;;;18.20;39.00;;;;;;6225558;23;20228;-82
2023/05/05 04:11:33;;;;;;;1.60;1.20;;;18.30;39.00;;;;;;6225904;23;20159;-82
2023/05/05 04:13:59;;;;;;;2.40;1.30;;;18.20;39.00;;;;;;6225280;23;20136;-82
2023/05/05 04:16:24;;;;;;;1.38;1.10;;;18.20;39.10;;;;;;6225248;23;20227;-82
2023/05/05 04:18:50;;;;;;;1.60;1.40;;;18.20;39.00;;;;;;6200394;23;20248;-82
2023/05/05 04:21:16;;;;;;;1.33;1.23;;;18.20;39.00;;;;;;6124161;23;20140;-82
2023/05/05 04:23:42;;;;;;;1.52;1.10;;;18.20;39.00;;;;;;6200310;23;20218;-82
2023/05/05 04:26:08;;;;;;;1.25;1.10;;;18.20;39.00;;;;;;6124961;23;20561;-82
2023/05/05 04:28:34;;;;;;;1.58;1.13;;;18.20;39.00;;;;;;6225895;23;20138;-82
2023/05/05 04:31:01;;;;;;;1.30;1.17;;;18.20;39.10;;;;;;6225792;23;20564;-82
2023/05/05 04:33:27;;;;;;;1.58;1.40;;;18.20;39.10;;;;;;6226010;23;20148;-81
2023/05/05 04:35:53;;;;;;;1.73;1.25;;;18.20;39.00;;;;;;6225454;23;20191;-82
2023/05/05 04:38:19;;;;;;;1.85;1.30;;;18.20;38.90;;;;;;6225867;23;20136;-82
2023/05/05 04:40:45;;;;;;;3.25;1.33;;;18.30;38.90;;;;;;6225389;23;20163;-82
2023/05/05 04:43:15;;;;;;;1.50;1.30;;;18.30;39.00;;;;;;6225689;23;20144;-82
2023/05/05 04:45:50;;;;;;;1.65;1.10;;;18.30;39.00;;;;;;6149648;23;20152;-82
2023/05/05 04:48:19;;;;;;;1.63;1.08;;;18.30;39.00;;;;;;6226418;23;20167;-82
2023/05/05 04:50:50;;;;;;;2.03;1.33;;;18.30;38.90;;;;;;6223503;23;20132;-81
2023/05/05 04:53:16;;;;;;;1.10;1.00;;;18.20;38.90;;;;;;6126885;23;20152;-82
2023/05/05 04:55:42;;;;;;;1.45;1.23;;;18.30;38.90;;;;;;6124681;23;20136;-82
2023/05/05 04:58:11;;;;;;;1.42;1.25;;;18.30;38.90;;;;;;6200544;23;20235;-82
2023/05/05 05:00:37;;;;;;;1.23;1.05;;;18.30;38.80;;;;;;6176051;23;20163;-82
2023/05/05 05:03:04;;;;;;;1.17;1.08;;;18.30;38.90;;;;;;6226085;23;20144;-82
2023/05/05 05:05:29;;;;;;;1.42;1.30;;;18.30;38.80;;;;;;6201249;23;20587;-82
2023/05/05 05:07:55;;;;;;;1.33;1.02;;;18.40;38.80;;;;;;6124176;23;20168;-82
2023/05/05 05:10:25;;;;;;;1.38;1.15;;;18.40;38.80;;;;;;6201146;23;20155;-81
2023/05/05 05:12:51;;;;;;;1.40;1.30;;;18.40;38.70;;;;;;6175128;23;20156;-82
2023/05/05 05:15:17;;;;;;;1.30;1.20;;;18.40;38.80;;;;;;6200910;23;20155;-82
2023/05/05 05:17:43;;;;;;;1.65;1.20;;;18.40;38.70;;;;;;6124614;23;20132;-82
2023/05/05 05:20:09;;;;;;;1.77;1.33;;;18.30;38.70;;;;;;6225925;23;20137;-82
2023/05/05 05:22:37;;;;;;;1.48;1.20;;;18.40;38.70;;;;;;6225926;23;20219;-82
2023/05/05 05:25:03;;;;;;;2.08;1.23;;;18.40;38.70;;;;;;6225926;23;20530;-82
2023/05/05 05:27:33;;;;;;;1.73;1.30;;;18.40;38.50;;;;;;6124415;23;20172;-82
2023/05/05 05:29:59;;;;;;;2.15;1.15;;;18.50;38.60;;;;;;6150441;23;20156;-82
2023/05/05 05:32:25;;;;;;;1.40;1.20;;;18.50;38.70;;;;;;6124943;23;20132;-82
2023/05/05 05:34:51;;;;;;;1.35;1.25;;;18.40;38.60;;;;;;6125386;22;20271;-82
2023/05/05 05:37:17;;;;;;;1.88;1.30;;;18.40;38.50;;;;;;6228783;23;20159;-82
2023/05/05 05:39:43;;;;;;;1.38;1.05;;;18.50;38.60;;;;;;6126888;23;20552;-82
2023/05/05 05:42:13;;;;;;;1.48;1.10;;;18.50;38.50;;;;;;6228673;23;20219;-82
2023/05/05 05:44:42;;;;;;;1.45;1.10;;;18.50;38.50;;;;;;6152444;23;20160;-82
2023/05/05 05:47:13;;;;;;;1.63;1.27;;;18.60;38.50;;;;;;6153617;23;20628;-82
2023/05/05 05:49:39;;;;;;;1.50;1.30;;;18.50;38.60;;;;;;6152865;23;20163;-82
2023/05/05 05:52:05;;;;;;;1.60;1.10;;;18.50;38.60;;;;;;6228874;23;20464;-82
2023/05/05 05:54:33;;;;;;;1.83;1.40;;;18.50;38.60;;;;;;6127329;23;20132;-82
2023/05/05 05:57:04;;;;;;;1.30;1.10;;;18.50;38.40;;;;;;6126923;23;20182;-82
2023/05/05 05:59:30;;;;;;;2.53;1.30;;;18.60;38.40;;;;;;6178557;23;20626;-82
2023/05/05 06:02:00;;;;;;;1.70;1.20;;;18.60;38.40;;;;;;6229804;23;20152;-82
2023/05/05 06:04:30;;;;;;;1.20;1.10;;;18.60;38.40;;;;;;6153805;23;20156;-82
2023/05/05 06:06:56;;;;;;;1.30;1.20;;;18.60;38.50;;;;;;6154016;23;20275;-82
2023/05/05 06:09:22;;;;;;;2.17;1.27;;;18.60;38.40;;;;;;6127482;23;20135;-82
2023/05/05 06:11:48;;;;;;;1.58;1.30;;;18.70;38.30;;;;;;6127207;23;20140;-82
2023/05/05 06:14:14;;;;;;;1.73;1.30;;;18.70;38.30;;;;;;6204617;23;20151;-82
2023/05/05 06:16:41;;;;;;;1.63;1.20;;;18.60;38.30;;;;;;6235590;23;20565;-82
2023/05/05 06:19:08;;;;;;;1.33;1.23;;;18.70;39.10;;;;;;6208490;23;20151;-83
2023/05/05 06:21:37;;;;;;;1.50;1.40;;;18.60;38.30;;;;;;6233277;23;20156;-82
2023/05/05 06:24:03;;;;;;;1.33;1.23;;;18.60;38.30;;;;;;6235476;23;20160;-81
2023/05/05 06:26:30;;;;;;;2.17;1.30;;;18.70;38.30;;;;;;6234508;23;20168;-82
2023/05/05 06:28:56;;;;;;;1.33;1.23;;;18.70;38.30;;;;;;6132878;23;20579;-81
2023/05/05 06:31:27;;;;;;;1.20;1.10;;;18.60;38.40;;;;;;6131866;23;20132;-82
2023/05/05 06:33:52;;;;;;;1.50;1.13;;;18.60;38.50;;;;;;6181722;22;20159;-82
2023/05/05 06:36:18;;;;;;;1.83;1.30;;;18.60;38.50;;;;;;6208489;23;20497;-81
2023/05/05 06:38:44;;;;;;;1.80;1.10;;;18.60;38.50;;;;;;6132049;23;20137;-81
2023/05/05 06:41:10;;;;;;;1.50;1.10;;;18.60;38.50;;;;;;6235392;23;20208;-82
2023/05/05 06:43:36;;;;;;;1.73;1.20;;;18.60;38.60;;;;;;6233945;23;20152;-82
2023/05/05 06:46:02;;;;;;;2.30;1.27;;;18.60;38.60;;;;;;6235709;23;20133;-82
2023/05/05 06:48:28;;;;;;;1.45;1.35;;;18.50;38.50;;;;;;6235141;23;20183;-81
2023/05/05 06:50:55;;;;;;;1.35;1.25;;;18.60;38.50;;;;;;6236103;23;20148;-82
2023/05/05 06:53:21;;;;;;;1.40;1.20;;;18.50;38.70;;;;;;6234649;23;20155;-82
2023/05/05 06:55:47;;;;;;;1.63;1.30;;;18.60;38.70;;;;;;6232427;23;20174;-82
2023/05/05 06:58:13;;;;;;;1.45;1.30;;;18.50;38.80;;;;;;6234505;23;20149;-81
2023/05/05 07:00:43;;;;;;;1.48;1.00;;;18.50;38.70;;;;;;6207026;23;20149;-82
2023/05/05 07:03:09;;;;;;;1.33;1.23;;;18.60;38.60;;;;;;6133490;23;20156;-82
2023/05/05 07:05:39;;;;;;;1.63;1.17;;;18.60;38.50;;;;;;6234165;23;20139;-83
2023/05/05 07:08:10;;;;;;;1.25;1.13;;;18.60;38.60;;;;;;6183356;23;20223;-82
2023/05/05 07:10:36;;;;;;;1.00;1.00;;;18.60;38.70;;;;;;6179822;23;20152;-82
2023/05/05 07:13:07;;;;;;;1.08;0.98;;;18.70;38.60;;;;;;6233978;23;20471;-82
2023/05/05 07:15:33;;;;;;;1.15;0.90;;;18.70;38.60;;;;;;6159448;23;20156;-82
2023/05/05 07:17:58;;;;;;;1.50;1.10;;;18.60;38.40;;;;;;6234766;23;20152;-82
2023/05/05 07:20:25;;;;;;;1.08;0.98;;;18.60;38.50;;;;;;6235180;23;20148;-82
2023/05/05 07:22:50;;;;;;;1.20;1.10;;;18.60;38.50;;;;;;6131929;23;20136;-82
2023/05/05 07:25:20;;;;;;;1.20;0.95;;;18.70;38.40;;;;;;6233104;23;20539;-82
2023/05/05 07:27:46;;;;;;;1.35;0.73;;;18.60;38.40;;;;;;6157144;23;20286;-82
2023/05/05 07:30:12;;;;;;;1.40;1.20;;;18.60;38.40;;;;;;6232845;23;20152;-82
2023/05/05 07:32:38;;;;;;;1.67;1.15;;;18.60;38.40;;;;;;6231596;23;20128;-82
2023/05/05 07:35:05;;;;;;;1.60;1.00;;;18.70;37.90;;;;;;6206097;23;20669;-81
2023/05/05 07:37:31;;;;;;;1.52;1.30;;;18.60;38.40;;;;;;6228882;23;20148;-82
2023/05/05 07:39:58;;;;;;;1.10;1.00;;;18.60;38.50;;;;;;6228168;23;20163;-82
2023/05/05 07:42:24;;;;;;;0.90;0.80;;;18.60;38.50;;;;;;6229261;23;20164;-82
2023/05/05 07:44:50;;;;;;;1.60;1.17;;;18.60;38.50;;;;;;6127618;23;20193;-82
2023/05/05 07:47:15;;;;;;;2.00;1.00;;;18.60;38.50;;;;;;6228265;23;20188;-82
2023/05/05 07:49:41;;;;;;;1.15;1.05;;;18.60;38.40;;;;;;6126444;23;20136;-82
2023/05/05 07:52:07;;;;;;;0.80;0.77;;;18.60;38.40;;;;;;6227796;23;20630;-82
2023/05/05 07:54:33;;;;;;;0.70;0.70;;;18.60;38.30;;;;;;6229293;23;20622;-81
2023/05/05 07:57:00;;;;;;;1.08;0.98;;;18.60;38.40;;;;;;6229454;23;20534;-82
2023/05/05 07:59:26;;;;;;;1.10;0.90;;;18.60;38.30;;;;;;6227225;23;20139;-82
2023/05/05 08:01:52;;;;;;;1.10;1.00;;;18.60;38.30;;;;;;6126412;23;20200;-82
2023/05/05 08:04:18;;;;;;;1.23;1.05;;;18.60;38.00;;;;;;6126763;23;20136;-82
2023/05/05 08:06:44;;;;;;;1.10;1.00;;;18.60;37.90;;;;;;6229123;23;20180;-82
2023/05/05 08:09:10;;;;;;;1.08;0.80;;;18.60;37.90;;;;;;6125584;23;20137;-82
2023/05/05 08:11:36;;;;;;;1.20;1.00;;;18.70;37.70;;;;;;6204108;23;20141;-82
2023/05/05 08:14:02;;;;;;;1.25;0.80;;;18.70;38.00;;;;;;6231619;23;20216;-82
2023/05/05 08:16:28;;;;;;;1.77;1.00;;;18.70;37.90;;;;;;6229682;23;20133;-82
2023/05/05 08:18:54;;;;;;;0.93;0.93;;;18.70;38.00;;;;;;6207136;23;20140;-83
2023/05/05 08:21:20;;;;;;;1.10;0.90;;;18.70;38.00;;;;;;6231654;23;20212;-82
2023/05/05 08:23:46;;;;;;;1.60;0.90;;;18.70;38.00;;;;;;6127172;23;20141;-82
2023/05/05 08:26:12;;;;;;;1.05;0.95;;;18.70;37.70;;;;;;6127141;23;20140;-82
2023/05/05 08:28:38;;;;;;;1.10;1.00;;;18.70;37.90;;;;;;6127319;23;20141;-83
2023/05/05 08:31:08;;;;;;;0.82;0.82;;;18.70;37.80;;;;;;6127285;23;20594;-83
2023/05/05 08:33:34;;;;;;;1.17;0.90;;;18.80;37.90;;;;;;6179190;23;20148;-83
2023/05/05 08:36:00;;;;;;;1.00;0.85;;;18.70;37.90;;;;;;6204593;23;20196;-82
2023/05/05 08:38:26;;;;;;;1.58;1.10;;;18.80;37.80;;;;;;6231812;23;20595;-82
2023/05/05 08:40:56;;;;;;;1.23;1.00;;;18.80;37.50;;;;;;6232753;23;20163;-82
2023/05/05 08:43:22;;;;;;;0.80;0.80;;;18.80;37.60;;;;;;6180970;23;20163;-83
2023/05/05 08:45:50;;;;;;;1.13;0.90;;;18.70;37.60;;;;;;6231225;23;20148;-83
2023/05/05 08:48:19;;;;;;;0.93;0.90;;;18.80;37.60;;;;;;6204331;23;20187;-83
2023/05/05 08:50:47;;;;;;;0.70;0.70;;;18.90;37.50;;;;;;6203231;23;20167;-83
2023/05/05 08:53:15;;;;;;;1.35;0.90;;;18.80;37.40;;;;;;6228989;23;20144;-83
2023/05/05 08:55:51;;;;;;;0.82;0.60;;;18.80;37.30;;;;;;6203241;23;20144;-84
2023/05/05 08:58:21;;;;;;;0.80;0.80;;;18.80;37.10;;;;;;6153940;23;20178;-82
2023/05/05 09:00:48;;;;;;;0.90;0.80;;;18.80;37.10;;;;;;6153445;23;20156;-83
2023/05/05 09:03:15;;;;;;;0.73;0.70;;;18.80;37.10;;;;;;6127251;23;20215;-83
2023/05/05 09:05:45;;;;;;;1.23;0.77;;;18.90;37.20;;;;;;6203654;23;20223;-82
2023/05/05 09:08:11;;;;;;;0.70;0.70;;;18.80;37.20;;;;;;6153483;23;20268;-82
2023/05/05 09:10:40;;;;;;;0.90;0.77;;;18.80;37.00;;;;;;6205633;23;20140;-83
2023/05/05 09:13:06;;;;;;;0.77;0.77;;;18.80;36.90;;;;;;6231609;23;20129;-83
2023/05/05 09:15:32;;;;;;;1.60;0.70;;;18.80;37.00;;;;;;6206396;23;20151;-82
2023/05/05 09:17:58;;;;;;;0.77;0.70;;;18.80;36.90;;;;;;6228752;23;20144;-82
2023/05/05 09:20:34;;;;;;;1.08;0.80;;;18.80;36.90;;;;;;6228596;23;20148;-82
2023/05/05 09:23:10;;;;;;;0.70;0.70;;;18.80;36.80;;;;;;6227470;23;20214;-82
2023/05/05 09:25:36;;;;;;;0.88;0.85;;;18.80;36.80;;;;;;6230471;23;20148;-82
2023/05/05 09:28:14;;;;;;;1.42;1.00;;;18.80;36.90;;;;;;6227713;23;20183;-82
2023/05/05 09:30:40;;;;;;;0.90;0.90;;;18.80;36.80;;;;;;6202947;23;20183;-83
2023/05/05 09:33:06;;;;;;;1.25;0.80;;;18.80;36.70;;;;;;6228576;23;20156;-83
2023/05/05 09:35:49;;;;;;;1.17;0.77;;;18.80;36.60;;;;;;6205684;23;20223;-84
2023/05/05 09:38:16;;;;;;;0.80;0.80;;;18.90;36.60;;;;;;6124946;23;20144;-82
2023/05/05 09:40:50;;;;;;;0.77;0.70;;;18.80;36.20;;;;;;6123455;23;20591;-83
2023/05/05 09:43:16;;;;;;;0.70;0.70;;;18.80;36.30;;;;;;6225935;23;20148;-83
2023/05/05 09:45:42;;;;;;;0.80;0.80;;;18.80;36.00;;;;;;6227116;23;20310;-82
2023/05/05 09:48:29;;;;;;;0.75;0.75;;;18.90;36.00;;;;;;6226149;23;20164;-83
2023/05/05 09:50:56;;;;;;;0.73;0.73;;;18.90;35.90;;;;;;6201152;23;20152;-82
2023/05/05 09:53:22;;;;;;;1.10;0.82;;;18.90;36.00;;;;;;6226512;23;20195;-83
2023/05/05 09:55:59;;;;;;;1.00;0.90;;;18.90;35.90;;;;;;6226085;23;20168;-82
2023/05/05 09:58:26;;;;;;;0.65;0.65;;;18.90;36.00;;;;;;6225422;23;20159;-82
2023/05/05 10:00:53;;;;;;;0.60;0.60;;;18.80;36.10;;;;;;6200087;23;20148;-82
2023/05/05 10:03:19;;;;;;;0.70;0.70;;;18.80;36.00;;;;;;6199901;23;20606;-83
2023/05/05 10:05:54;;;;;;;0.60;0.60;;;18.80;35.90;;;;;;6225706;23;20446;-83
2023/05/05 10:08:22;;;;;;;0.80;0.80;;;18.80;35.70;;;;;;6226362;23;20175;-82
2023/05/05 10:10:51;;;;;;;0.75;0.70;;;18.90;35.50;;;;;;6225363;23;20133;-83
2023/05/05 10:13:18;;;;;;;0.98;0.70;;;18.90;35.50;;;;;;6226204;23;20595;-83
2023/05/05 10:15:44;;;;;;;0.77;0.70;;;18.90;35.70;;;;;;6227571;23;20156;-83
2023/05/05 10:18:12;;;;;;;0.70;0.70;;;18.80;35.50;;;;;;6202480;23;20156;-84
2023/05/05 10:20:38;;;;;;;0.88;0.75;;;19.00;35.50;;;;;;6233562;23;20136;-84
2023/05/05 10:23:10;;;;;;;0.77;0.77;;;18.80;35.60;;;;;;6075353;23;20187;-83
2023/05/05 10:25:42;;;;;;;1.10;1.00;;;18.80;35.60;;;;;;5978258;23;20467;-83
2023/05/05 10:28:09;;;;;;;0.98;0.77;;;18.80;35.60;;;;;;6004804;23;20759;-83
2023/05/05 10:30:38;;;;;;;0.70;0.70;;;18.80;35.50;;;;;;6046757;23;20492;-83
2023/05/05 10:33:21;;;;;;;0.57;0.57;;;18.80;35.40;;;;;;6044786;23;20157;-83
2023/05/05 10:35:48;;;;;;;0.88;0.70;;;18.80;35.40;;;;;;6197304;23;20275;-84
2023/05/05 10:38:14;;;;;;;0.60;0.60;;;18.80;35.20;;;;;;6202554;23;20212;-83
2023/05/05 10:40:45;;;;;;;1.02;0.82;;;18.80;35.30;;;;;;6226950;23;20556;-83
2023/05/05 10:43:16;;;;;;;0.70;0.70;;;18.80;35.20;;;;;;6227716;23;20217;-83
2023/05/05 10:45:42;;;;;;;1.25;0.85;;;18.90;35.20;;;;;;6152402;23;20153;-83
2023/05/05 10:48:12;;;;;;;1.88;0.90;;;18.80;35.20;;;;;;6224310;23;20528;-83
2023/05/05 10:50:43;;;;;;;0.70;0.70;;;18.80;35.30;;;;;;6222378;23;20157;-83
2023/05/05 10:53:28;;;;;;;0.68;0.68;;;18.80;35.30;;;;;;6200465;22;20150;-84
2023/05/05 10:56:18;;;;;;;0.82;0.80;;;18.80;35.20;;;;;;6256440;22;20139;-83
2023/05/05 10:58:44;;;;;;;1.17;0.70;;;18.70;35.20;;;;;;6263104;22;20136;-83
2023/05/05 11:01:10;;;;;;;0.60;0.60;;;18.70;35.00;;;;;;6255016;22;20288;-84
2023/05/05 11:03:39;;;;;;;0.82;0.82;;;18.80;35.10;;;;;;6262133;22;20129;-82
2023/05/05 11:06:08;;;;;;;0.77;0.77;;;18.70;35.10;;;;;;6183556;22;20590;-83
2023/05/05 11:08:41;;;;;;;0.98;0.90;;;18.70;34.90;;;;;;6235168;22;20235;-83
2023/05/05 11:11:11;;;;;;;0.60;0.60;;;18.80;34.80;;;;;;6206923;22;20149;-82
2023/05/05 11:13:38;;;;;;;0.60;0.60;;;18.80;34.80;;;;;;6177380;22;20176;-83
2023/05/05 11:16:04;;;;;;;0.80;0.80;;;18.80;34.90;;;;;;6252612;22;20161;-83
2023/05/05 11:18:36;;;;;;;0.88;0.70;;;18.80;34.80;;;;;;6226492;22;20149;-84
2023/05/05 11:21:14;;;;;;;0.80;0.60;;;18.80;34.90;;;;;;6150898;22;20158;-84
2023/05/05 11:23:48;;;;;;;0.80;0.80;;;18.70;34.80;;;;;;6227264;22;20538;-84
2023/05/05 11:26:14;;;;;;;0.85;0.80;;;18.70;34.90;;;;;;6251760;22;20153;-84
2023/05/05 11:29:02;;;;;;;1.05;0.95;;;18.80;34.90;;;;;;6226419;22;20259;-85
2023/05/05 11:31:29;;;;;;;1.17;0.80;;;18.80;34.80;;;;;;6226101;22;20144;-84
2023/05/05 11:34:18;;;;;;;1.08;0.80;;;18.80;34.70;;;;;;6218739;22;20619;-84
2023/05/05 11:36:44;;;;;;;0.85;0.70;;;18.80;34.80;;;;;;6211110;23;20144;-84
2023/05/05 11:39:22;;;;;;;1.00;0.90;;;18.80;34.50;;;;;;6201128;23;20235;-84
2023/05/05 11:42:04;;;;;;;0.70;0.63;;;18.80;34.60;;;;;;6200713;23;20238;-84
2023/05/05 11:44:31;;;;;;;0.90;0.90;;;18.80;34.50;;;;;;6123707;23;20199;-85
2023/05/05 11:47:26;;;;;;;0.80;0.70;;;18.80;34.50;;;;;;6225026;23;20164;-84
2023/05/05 11:49:52;;;;;;;0.50;0.50;;;18.80;34.40;;;;;;6205620;23;20437;-84
2023/05/05 11:52:22;;;;;;;0.90;0.57;;;18.80;34.30;;;;;;6224852;23;20160;-85
2023/05/05 11:54:49;;;;;;;0.70;0.70;;;18.80;34.30;;;;;;6148758;23;20157;-85
2023/05/05 11:57:25;;;;;;;0.70;0.70;;;18.80;34.10;;;;;;6225161;23;20244;-84
2023/05/05 12:00:00;;;;;;;0.70;0.70;;;18.70;34.30;;;;;;6152160;23;20238;-84
2023/05/05 12:02:30;;;;;;;0.98;0.60;;;18.80;34.20;;;;;;6200362;23;20239;-83
2023/05/05 12:04:57;;;;;;;0.93;0.63;;;18.80;34.10;;;;;;6149454;23;20209;-84
2023/05/05 12:07:28;;;;;;;1.10;0.60;;;18.80;34.10;;;;;;6199946;23;20171;-84
2023/05/05 12:09:54;;;;;;;0.70;0.52;;;18.80;34.10;;;;;;6225065;23;20128;-85
2023/05/05 12:12:31;;;;;;;1.00;0.90;;;18.80;34.10;;;;;;6225036;23;20563;-83
2023/05/05 12:14:57;;;;;;;0.90;0.75;;;18.80;34.10;;;;;;6126325;23;20151;-84
2023/05/05 12:17:23;;;;;;;0.70;0.65;;;18.80;34.10;;;;;;6227835;23;20140;-84
2023/05/05 12:19:53;;;;;;;1.50;0.80;;;18.80;34.10;;;;;;6203439;23;20659;-85
2023/05/05 12:22:25;;;;;;;0.90;0.77;;;18.80;34.10;;;;;;6230767;23;20160;-84
2023/05/05 12:24:57;;;;;;;0.70;0.70;;;18.70;33.90;;;;;;6133160;23;20235;-83
2023/05/05 12:27:25;;;;;;;0.50;0.50;;;18.70;33.90;;;;;;6158870;23;20176;-85
2023/05/05 12:29:55;;;;;;;1.67;0.85;;;18.70;33.90;;;;;;6208191;23;20155;-84
2023/05/05 12:32:26;;;;;;;0.60;0.60;;;18.70;33.80;;;;;;6182830;23;20160;-84
2023/05/05 12:34:53;;;;;;;0.73;0.70;;;18.80;33.70;;;;;;6127582;23;20192;-84
2023/05/05 12:37:19;;;;;;;0.60;0.60;;;18.80;33.70;;;;;;6082688;23;20164;-85
2023/05/05 12:39:45;;;;;;;0.70;0.70;;;18.70;33.80;;;;;;6131344;23;20576;-84
2023/05/05 12:42:11;;;;;;;0.88;0.60;;;18.80;33.80;;;;;;6131267;23;20136;-84
2023/05/05 12:44:38;;;;;;;0.82;0.82;;;18.80;33.80;;;;;;6104111;23;20235;-85
2023/05/05 12:47:04;;;;;;;0.70;0.70;;;18.80;33.60;;;;;;6103052;23;20179;-84
2023/05/05 12:49:48;;;;;;;2.15;0.70;;;18.80;33.50;;;;;;6126890;23;20214;-84
2023/05/05 12:52:18;;;;;;;0.70;0.70;;;18.80;33.50;;;;;;6174422;23;20155;-84
2023/05/05 12:54:58;;;;;;;0.70;0.70;;;18.90;33.60;;;;;;6153497;23;20148;-85
2023/05/05 12:57:25;;;;;;;1.88;0.70;;;18.80;33.70;;;;;;6126198;23;20583;-84